Time;durP1;ratioP1;P1;durP2;ratioP2;P2;SDS_P1;SDS_P2;PMS_P1;PMS_P2;Temp;Humidity;BMP_temperature;BMP_pressure;BME280_temperature;BME280_humidity;BME280_pressure;Samples;Min_cycle;Max_cycle;Signal;HPM_P1;HPM_P2
2022/09/16 00:00:46;;;;;;;0.30;0.30;;;16.90;99.90;;;17.86;65.51;100084.88;5002084;28;20645;-66
2022/09/16 00:03:16;;;;;;;0.30;0.30;;;16.90;99.90;;;17.91;65.13;100091.28;5010751;28;20663;-65
2022/09/16 00:05:46;;;;;;;0.30;0.30;;;16.90;99.90;;;17.80;65.60;100084.53;5033929;28;20646;-66
2022/09/16 00:08:15;;;;;;;0.30;0.30;;;16.80;99.90;;;17.76;65.86;100087.69;5009671;28;20641;-65
2022/09/16 00:10:42;;;;;;;0.30;0.30;;;16.80;99.90;;;17.79;65.65;100084.72;5010468;28;21379;-65
2022/09/16 00:13:11;;;;;;;0.30;0.30;;;16.80;99.90;;;17.65;65.79;100082.78;5002670;28;20741;-64
2022/09/16 00:15:43;;;;;;;0.30;0.30;;;16.70;99.90;;;17.77;65.78;100087.53;5011246;28;20638;-65
2022/09/16 00:18:11;;;;;;;0.30;0.30;;;16.70;99.90;;;17.85;65.59;100089.31;5009820;28;20617;-66
2022/09/16 00:20:47;;;;;;;0.30;0.30;;;16.80;99.90;;;17.75;66.04;100084.25;5007895;28;20664;-65
2022/09/16 00:23:14;;;;;;;0.30;0.30;;;16.80;99.90;;;17.73;66.35;100085.41;4992008;28;21309;-65
2022/09/16 00:25:41;;;;;;;0.30;0.30;;;16.70;99.90;;;17.74;67.00;100081.75;4991208;28;20642;-65
2022/09/16 00:28:09;;;;;;;0.30;0.30;;;16.80;99.90;;;17.67;67.08;100088.72;4991212;28;20619;-67
2022/09/16 00:30:36;;;;;;;0.30;0.30;;;16.70;99.90;;;17.63;67.22;100082.13;4992189;28;20978;-65
2022/09/16 00:33:02;;;;;;;0.30;0.30;;;16.70;99.90;;;17.57;67.16;100088.06;4992267;28;20997;-65
2022/09/16 00:35:29;;;;;;;0.30;0.30;;;16.70;99.90;;;17.57;67.21;100085.44;5003254;28;20661;-65
2022/09/16 00:37:56;;;;;;;0.30;0.30;;;16.60;99.90;;;17.57;67.42;100094.16;5002043;28;20707;-65
2022/09/16 00:40:23;;;;;;;0.30;0.30;;;16.60;99.90;;;17.64;67.35;100096.97;5010004;28;20626;-65
2022/09/16 00:42:50;;;;;;;0.30;0.30;;;16.70;99.90;;;17.64;67.66;100089.88;4998211;28;20733;-65
2022/09/16 00:45:23;;;;;;;0.30;0.30;;;16.70;99.90;;;17.59;67.54;100089.53;4991111;28;20682;-65
2022/09/16 00:48:13;;;;;;;0.30;0.30;;;16.70;99.90;;;17.71;66.91;100084.75;4989866;28;21052;-65
2022/09/16 00:50:50;;;;;;;0.30;0.30;;;16.70;99.90;;;17.63;67.06;100085.56;4989664;28;21053;-65
2022/09/16 00:53:41;;;;;;;0.30;0.30;;;16.70;99.90;;;17.63;66.86;100087.41;5006869;28;20617;-65
2022/09/16 00:56:12;;;;;;;0.30;0.30;;;16.70;99.90;;;17.46;67.60;100086.56;5008865;28;21007;-66
2022/09/16 00:59:18;;;;;;;0.30;0.30;;;16.60;99.90;;;17.45;67.42;100087.56;5007042;28;20630;-65
2022/09/16 01:01:46;;;;;;;0.30;0.30;;;16.60;99.90;;;17.41;67.47;100093.34;4983802;28;20709;-66
2022/09/16 01:04:20;;;;;;;0.30;0.30;;;16.50;99.90;;;17.41;67.98;100080.16;4989570;28;20674;-65
2022/09/16 01:06:48;;;;;;;0.30;0.30;;;16.50;99.90;;;17.49;67.61;100078.34;4995146;28;20659;-65
2022/09/16 01:09:17;;;;;;;0.30;0.30;;;16.50;99.90;;;17.41;67.82;100075.72;4991289;28;20729;-65
2022/09/16 01:11:44;;;;;;;0.30;0.30;;;16.50;99.90;;;17.40;68.04;100073.25;4991647;28;20669;-65
2022/09/16 01:17:14;;;;;;;0.30;0.30;;;16.40;99.90;;;17.39;68.62;100087.41;4994691;28;21185;-66
2022/09/16 01:19:46;;;;;;;0.30;0.30;;;16.40;99.90;;;17.36;68.57;100083.28;4994735;28;21192;-65
2022/09/16 01:22:58;;;;;;;0.30;0.30;;;16.40;99.90;;;17.39;69.28;100076.88;5003134;28;20646;-66
2022/09/16 01:26:17;;;;;;;0.30;0.30;;;16.40;99.90;;;17.38;69.27;100080.47;5008520;28;20667;-65
2022/09/16 01:29:32;;;;;;;0.30;0.30;;;16.40;99.90;;;17.35;69.30;100088.75;4994343;28;21182;-65
2022/09/16 01:32:23;;;;;;;0.30;0.30;;;16.40;99.90;;;17.39;69.47;100090.88;4994596;28;20646;-65
2022/09/16 01:35:28;;;;;;;0.30;0.30;;;16.40;99.90;;;17.34;69.52;100092.34;4993339;28;20638;-65
2022/09/16 01:38:04;;;;;;;0.30;0.30;;;16.40;99.90;;;17.35;69.82;100083.47;4998322;28;21056;-65
2022/09/16 01:40:46;;;;;;;0.30;0.27;;;16.40;99.90;;;17.36;69.41;100087.72;5003503;28;20610;-65
2022/09/16 01:43:30;;;;;;;0.30;0.30;;;16.40;99.90;;;17.36;69.49;100078.03;4993837;28;20610;-65
2022/09/16 01:46:08;;;;;;;0.30;0.30;;;16.40;99.90;;;17.39;69.58;100074.22;4994255;28;20638;-65
2022/09/16 01:48:43;;;;;;;0.30;0.30;;;16.40;99.90;;;17.38;69.07;100068.13;4992725;28;20625;-65
2022/09/16 01:51:25;;;;;;;0.30;0.20;;;16.40;99.90;;;17.37;68.85;100060.38;4993529;28;20665;-66
2022/09/16 01:54:06;;;;;;;0.30;0.30;;;16.40;99.90;;;17.40;68.82;100057.44;4997012;28;20697;-65
2022/09/16 01:57:03;;;;;;;0.30;0.30;;;16.40;99.90;;;17.37;68.79;100050.66;4995988;28;20617;-65
2022/09/16 01:59:56;;;;;;;0.30;0.30;;;16.40;99.90;;;17.31;69.24;100034.69;5002043;28;20689;-65
2022/09/16 02:02:32;;;;;;;0.30;0.30;;;16.40;99.90;;;17.26;70.43;100031.72;4992468;28;20626;-65
2022/09/16 02:05:06;;;;;;;0.87;0.87;;;16.40;99.90;;;17.36;70.05;100049.00;4993593;28;20701;-65
2022/09/16 02:07:38;;;;;;;0.30;0.30;;;16.40;99.90;;;17.26;70.65;100060.72;5006606;28;20618;-65
2022/09/16 02:10:22;;;;;;;0.30;0.30;;;16.40;99.90;;;17.32;71.00;100075.88;5011417;28;21228;-65
2022/09/16 02:12:52;;;;;;;0.30;0.30;;;16.40;99.90;;;17.34;70.01;100080.00;5012563;28;20617;-66
2022/09/16 02:15:22;;;;;;;0.30;0.30;;;16.40;99.90;;;17.31;69.82;100085.63;5012463;28;20629;-64
2022/09/16 02:18:01;;;;;;;0.30;0.30;;;16.40;99.90;;;17.45;69.47;100084.94;5014612;28;21320;-65
2022/09/16 02:20:31;;;;;;;0.30;0.30;;;16.40;99.90;;;17.43;69.69;100083.44;5013234;28;20609;-65
2022/09/16 02:23:06;;;;;;;0.30;0.30;;;16.40;99.90;;;17.39;70.09;100074.22;5009620;28;21096;-65
2022/09/16 02:25:37;;;;;;;0.30;0.30;;;16.40;99.90;;;17.44;70.34;100066.66;5026998;28;20696;-66
2022/09/16 02:28:12;;;;;;;0.30;0.30;;;16.40;99.90;;;17.50;70.52;100066.00;5028241;28;20617;-64
2022/09/16 02:30:46;;;;;;;0.30;0.30;;;16.40;99.90;;;17.36;70.89;100074.56;4996270;28;20636;-65
2022/09/16 02:33:15;;;;;;;0.30;0.30;;;16.40;99.90;;;17.34;70.60;100073.91;5019615;28;20691;-65
2022/09/16 02:35:47;;;;;;;0.40;0.40;;;16.40;99.90;;;17.32;70.82;100079.34;5004918;28;20668;-65
2022/09/16 02:38:24;;;;;;;0.30;0.30;;;16.40;99.90;;;17.29;71.35;100089.41;5018509;28;20621;-66
2022/09/16 02:40:57;;;;;;;0.30;0.30;;;16.30;99.90;;;17.41;70.74;100099.44;5011110;28;20651;-65
2022/09/16 02:43:25;;;;;;;0.30;0.30;;;16.40;99.90;;;17.36;71.35;100098.28;5010372;28;21036;-65
2022/09/16 02:46:32;;;;;;;0.30;0.30;;;16.40;99.90;;;17.32;71.22;100107.50;5012099;28;20638;-64
2022/09/16 02:49:22;;;;;;;0.30;0.30;;;16.30;99.90;;;17.14;72.17;100104.25;5013643;28;21259;-65
2022/09/16 02:52:43;;;;;;;0.30;0.30;;;16.20;99.90;;;17.18;71.83;100097.66;5012652;28;20621;-65
2022/09/16 02:55:22;;;;;;;0.30;0.30;;;16.20;99.90;;;17.10;71.98;100098.47;5012617;28;20692;-64
2022/09/16 02:57:49;;;;;;;0.30;0.30;;;16.20;99.90;;;16.97;72.52;100090.25;5006175;28;20695;-65
2022/09/16 03:00:16;;;;;;;0.30;0.30;;;16.20;99.90;;;17.08;72.21;100093.34;5012427;28;20626;-65
2022/09/16 03:02:43;;;;;;;0.30;0.30;;;16.20;99.90;;;17.18;71.49;100087.09;5012331;28;20679;-64
2022/09/16 03:05:10;;;;;;;0.30;0.30;;;16.20;99.90;;;17.18;71.59;100087.09;5011989;28;20680;-66
2022/09/16 03:07:40;;;;;;;0.30;0.30;;;16.30;99.90;;;17.13;71.78;100095.50;5013643;28;20613;-65
2022/09/16 03:10:13;;;;;;;0.30;0.30;;;16.20;99.90;;;17.09;71.74;100088.91;4997892;28;20969;-65
2022/09/16 03:12:48;;;;;;;0.30;0.30;;;16.20;99.90;;;17.10;72.05;100081.84;4992704;28;20611;-65
2022/09/16 03:15:45;;;;;;;0.30;0.30;;;16.20;99.90;;;17.18;71.66;100080.03;4997160;28;20714;-65
2022/09/16 03:18:25;;;;;;;0.30;0.30;;;16.20;99.90;;;17.19;71.36;100088.72;5011441;28;20750;-65
2022/09/16 03:21:17;;;;;;;0.30;0.30;;;16.20;99.90;;;17.14;71.53;100078.72;5010814;28;21026;-65
2022/09/16 03:24:01;;;;;;;0.30;0.30;;;16.20;99.90;;;17.14;71.75;100069.97;5004480;28;21086;-64
2022/09/16 03:26:57;;;;;;;0.30;0.30;;;16.20;99.90;;;17.08;72.33;100069.63;5012005;28;20953;-64
2022/09/16 03:29:33;;;;;;;0.30;0.30;;;16.20;99.90;;;17.08;71.69;100059.09;5002705;28;20638;-66
2022/09/16 03:32:21;;;;;;;0.30;0.30;;;16.20;99.90;;;17.15;71.12;100056.63;5012106;28;20613;-67
2022/09/16 03:34:59;;;;;;;0.30;0.30;;;16.20;99.90;;;17.11;71.88;100054.47;5025442;28;20708;-66
2022/09/16 03:37:33;;;;;;;0.30;0.30;;;16.20;99.90;;;17.10;72.34;100063.38;5002054;28;20645;-67
2022/09/16 03:40:07;;;;;;;0.30;0.30;;;16.10;99.90;;;17.16;72.30;100057.44;5010791;28;20668;-65
2022/09/16 03:42:38;;;;;;;0.30;0.30;;;16.20;99.90;;;17.16;72.23;100057.44;5010880;28;20663;-64
2022/09/16 03:45:06;;;;;;;0.30;0.30;;;16.20;99.90;;;17.14;72.43;100048.88;4995886;28;21245;-65
2022/09/16 03:47:33;;;;;;;0.30;0.30;;;16.20;99.90;;;17.19;71.89;100047.38;4991679;28;20688;-65
2022/09/16 03:50:00;;;;;;;0.30;0.30;;;16.20;99.90;;;17.23;71.77;100053.16;4991508;28;20614;-65
2022/09/16 03:52:27;;;;;;;0.30;0.30;;;16.30;99.90;;;17.17;72.17;100046.72;4992498;28;20643;-66
2022/09/16 03:54:54;;;;;;;0.30;0.30;;;16.20;99.90;;;17.09;72.79;100057.28;5007284;28;20696;-65
2022/09/16 03:57:21;;;;;;;0.30;0.20;;;16.20;99.90;;;17.11;72.77;100049.22;5010295;28;20640;-65
2022/09/16 03:59:47;;;;;;;0.30;0.30;;;16.20;99.90;;;17.15;72.71;100051.34;5005093;28;20630;-64
2022/09/16 04:02:14;;;;;;;0.30;0.30;;;16.20;99.90;;;17.22;72.47;100051.50;5026716;28;20613;-65
2022/09/16 04:04:41;;;;;;;0.30;0.30;;;16.30;99.90;;;17.21;72.21;100045.41;5011652;28;21085;-65
2022/09/16 04:07:08;;;;;;;0.30;0.30;;;16.20;99.90;;;17.19;72.09;100054.47;5001743;28;20677;-65
2022/09/16 04:09:36;;;;;;;0.40;0.40;;;16.20;99.90;;;17.15;72.37;100051.34;4992820;28;20672;-66
2022/09/16 04:12:06;;;;;;;0.30;0.30;;;16.20;99.90;;;17.20;72.36;100048.22;5009477;28;20641;-65
2022/09/16 04:14:34;;;;;;;0.90;0.87;;;16.20;99.90;;;17.16;72.70;100050.38;5010697;28;20692;-65
2022/09/16 04:17:01;;;;;;;0.30;0.30;;;16.20;99.90;;;17.22;72.45;100041.78;5010357;28;20637;-65
2022/09/16 04:19:28;;;;;;;0.30;0.30;;;16.20;99.90;;;17.08;73.05;100045.91;5010564;28;20687;-65
2022/09/16 04:21:55;;;;;;;0.30;0.30;;;16.10;99.90;;;17.12;72.68;100042.97;5010261;28;20696;-65
2022/09/16 04:24:22;;;;;;;0.30;0.30;;;16.10;99.90;;;17.08;73.20;100043.28;5011039;28;20743;-65
2022/09/16 04:26:48;;;;;;;0.30;0.30;;;16.10;99.90;;;17.04;73.29;100044.59;4993240;28;20657;-65
2022/09/16 04:29:16;;;;;;;0.30;0.30;;;16.10;99.90;;;16.99;72.61;100036.34;4991895;28;21035;-65
2022/09/16 04:31:43;;;;;;;0.30;0.30;;;16.00;99.90;;;17.05;72.50;100038.34;4995071;28;20638;-65
2022/09/16 04:34:13;;;;;;;0.30;0.30;;;16.10;99.90;;;17.03;72.61;100035.06;5011631;28;20704;-66
2022/09/16 04:36:39;;;;;;;0.30;0.30;;;16.10;99.90;;;17.01;72.64;100041.47;5000069;28;21001;-65
2022/09/16 04:39:07;;;;;;;0.30;0.30;;;16.00;99.90;;;17.08;73.14;100038.00;4990772;28;20638;-65
2022/09/16 04:41:34;;;;;;;0.30;0.30;;;16.10;99.90;;;16.95;74.08;100044.78;4995196;28;21216;-66
2022/09/16 04:44:01;;;;;;;0.30;0.30;;;16.10;99.90;;;16.97;73.78;100038.34;4993023;28;20658;-66
2022/09/16 04:46:29;;;;;;;0.30;0.30;;;16.00;99.90;;;16.96;72.88;100041.97;4989560;28;20935;-65
2022/09/16 04:48:58;;;;;;;0.30;0.30;;;16.00;99.90;;;16.98;73.69;100040.00;4994370;28;20662;-65
2022/09/16 04:51:26;;;;;;;0.30;0.30;;;16.00;99.90;;;16.91;73.86;100039.00;4992041;28;20680;-65
2022/09/16 04:53:57;;;;;;;0.30;0.30;;;16.00;99.90;;;16.98;73.04;100044.44;5009457;28;20657;-64
2022/09/16 04:56:28;;;;;;;0.30;0.30;;;16.00;99.90;;;17.02;73.07;100043.13;5025676;28;20617;-65
2022/09/16 04:58:59;;;;;;;0.30;0.30;;;16.00;99.90;;;17.02;73.05;100043.94;5011580;28;21232;-65
2022/09/16 05:01:29;;;;;;;0.30;0.30;;;16.00;99.90;;;17.03;73.61;100048.25;5000466;28;20639;-65
2022/09/16 05:04:00;;;;;;;0.30;0.30;;;16.00;99.90;;;17.05;73.04;100051.53;4990880;28;21047;-65
2022/09/16 05:06:31;;;;;;;0.30;0.27;;;16.00;99.90;;;17.08;72.77;100050.34;4990998;28;20615;-66
2022/09/16 05:09:01;;;;;;;0.30;0.30;;;16.10;99.90;;;17.02;72.71;100053.66;4991990;28;20599;-65
2022/09/16 05:11:35;;;;;;;0.30;0.30;;;16.10;99.90;;;17.11;72.20;100050.03;5009380;28;20668;-64
2022/09/16 05:14:06;;;;;;;0.30;0.30;;;16.10;99.90;;;17.04;72.84;100051.69;5009178;28;20660;-65
2022/09/16 05:16:34;;;;;;;0.30;0.30;;;16.00;99.90;;;16.95;72.75;100050.84;5009749;28;21025;-65
2022/09/16 05:19:04;;;;;;;0.30;0.30;;;16.00;99.90;;;17.02;72.83;100058.94;4998425;28;20634;-67
2022/09/16 05:21:34;;;;;;;1.07;1.07;;;16.00;99.90;;;17.03;73.20;100048.25;5006363;28;21045;-66
2022/09/16 05:24:07;;;;;;;0.50;0.50;;;16.00;99.90;;;17.03;73.07;100058.78;5025103;23;21112;-67
2022/09/16 05:26:37;;;;;;;0.80;0.80;;;16.00;99.90;;;17.04;73.38;100049.88;5008105;28;20634;-67
2022/09/16 05:29:09;;;;;;;0.40;0.40;;;16.10;99.90;;;17.08;73.32;100051.19;4990592;28;20625;-67
2022/09/16 05:31:39;;;;;;;0.30;0.30;;;16.10;99.90;;;17.08;72.82;100065.38;4989681;28;20602;-68
2022/09/16 05:34:12;;;;;;;0.30;0.30;;;16.10;99.90;;;17.04;72.77;100059.59;4980298;28;20622;-68
2022/09/16 05:36:42;;;;;;;0.30;0.30;;;16.10;99.90;;;17.03;72.64;100056.16;4959207;28;20628;-67
2022/09/16 05:39:14;;;;;;;0.30;0.30;;;16.10;99.90;;;17.05;72.87;100051.53;4971043;28;20616;-69
2022/09/16 05:41:54;;;;;;;0.30;0.20;;;16.10;99.90;;;17.04;72.70;100052.50;4961906;28;20636;-66
2022/09/16 05:44:22;;;;;;;0.30;0.30;;;16.10;99.90;;;17.01;72.24;100052.81;4971890;28;20654;-66
2022/09/16 05:46:48;;;;;;;0.30;0.30;;;16.00;99.90;;;17.01;72.18;100059.94;4982017;28;20632;-67
2022/09/16 05:49:19;;;;;;;1.03;0.93;;;16.00;99.90;;;17.03;72.02;100052.69;4948714;28;21007;-66
2022/09/16 05:51:48;;;;;;;0.30;0.30;;;16.00;99.90;;;17.08;71.63;100054.81;4951398;28;21259;-67
2022/09/16 05:54:19;;;;;;;0.30;0.30;;;16.10;99.90;;;17.08;71.54;100057.47;4965998;28;20699;-67
2022/09/16 05:56:47;;;;;;;0.30;0.30;;;16.10;99.90;;;17.13;70.61;100061.22;4952457;28;20620;-68
2022/09/16 05:59:16;;;;;;;0.30;0.30;;;16.10;99.90;;;17.20;70.57;100061.41;4959941;28;20643;-67
2022/09/16 06:01:44;;;;;;;0.30;0.20;;;16.20;99.90;;;17.23;70.65;100064.50;4955190;28;20636;-68
2022/09/16 06:04:14;;;;;;;0.30;0.30;;;16.20;99.90;;;17.28;70.27;100056.94;4962053;28;20656;-68
2022/09/16 06:06:45;;;;;;;0.30;0.30;;;16.20;99.90;;;17.30;70.37;100060.22;4956571;28;21238;-67
2022/09/16 06:09:23;;;;;;;0.30;0.30;;;16.30;99.90;;;17.18;70.86;100066.84;4974440;28;21175;-68
2022/09/16 06:11:53;;;;;;;0.30;0.30;;;16.30;99.90;;;17.26;70.87;100074.75;4973435;28;20619;-66
2022/09/16 06:14:27;;;;;;;0.30;0.30;;;16.20;99.90;;;17.30;70.49;100078.69;4973874;28;21210;-67
2022/09/16 06:16:54;;;;;;;0.30;0.30;;;16.30;99.90;;;17.37;70.69;100073.56;4975230;28;20627;-67
2022/09/16 06:19:21;;;;;;;0.30;0.30;;;16.30;99.90;;;17.27;71.07;100071.09;4957153;28;20620;-67
2022/09/16 06:21:48;;;;;;;0.30;0.30;;;16.30;99.90;;;17.36;70.20;100064.00;4954798;29;20620;-67
2022/09/16 06:24:18;;;;;;;0.30;0.30;;;16.40;99.90;;;17.42;70.00;100068.63;4956955;28;20699;-68
2022/09/16 06:26:47;;;;;;;0.30;0.30;;;16.40;99.90;;;17.50;69.60;100071.28;4991848;28;20689;-67
2022/09/16 06:29:15;;;;;;;0.30;0.30;;;16.50;99.90;;;17.48;69.63;100070.59;4982160;28;20634;-67
2022/09/16 06:31:42;;;;;;;0.30;0.30;;;16.50;99.90;;;17.58;68.91;100073.91;4972664;28;20627;-68
2022/09/16 06:34:17;;;;;;;0.93;0.93;;;16.50;99.90;;;17.65;68.68;100073.03;4973288;28;20659;-67
2022/09/16 06:36:44;;;;;;;0.30;0.30;;;16.60;99.90;;;17.62;68.84;100065.47;4967343;28;20686;-67
2022/09/16 06:39:13;;;;;;;0.30;0.30;;;16.60;99.90;;;17.58;68.80;100063.34;4957730;28;20612;-68
2022/09/16 06:41:40;;;;;;;0.30;0.30;;;16.60;99.90;;;17.67;68.10;100067.63;4976496;28;20622;-67
2022/09/16 06:44:07;;;;;;;0.30;0.30;;;16.60;99.90;;;17.65;68.15;100065.13;4990982;28;20642;-68
2022/09/16 06:46:34;;;;;;;0.30;0.30;;;16.60;99.90;;;17.65;68.61;100069.59;4992434;28;20654;-68
2022/09/16 06:49:01;;;;;;;0.30;0.30;;;16.60;99.90;;;17.61;68.10;100065.66;4992798;28;20661;-67
2022/09/16 06:51:33;;;;;;;0.30;0.30;;;16.60;99.90;;;17.63;67.82;100061.03;4955384;28;20609;-67
2022/09/16 06:54:04;;;;;;;0.30;0.30;;;16.60;99.90;;;17.60;67.93;100066.63;4957886;28;20647;-66
2022/09/16 06:56:34;;;;;;;0.30;0.30;;;16.60;99.90;;;17.51;68.20;100067.63;4976959;28;20634;-67
2022/09/16 06:59:02;;;;;;;0.30;0.30;;;16.60;99.90;;;17.51;68.28;100065.84;4964313;28;20644;-67
2022/09/16 07:01:30;;;;;;;0.30;0.30;;;16.50;99.90;;;17.58;68.05;100064.19;4963699;28;21066;-67
2022/09/16 07:04:00;;;;;;;0.30;0.30;;;16.50;99.90;;;17.65;67.91;100064.31;4960778;28;20621;-67
2022/09/16 07:06:29;;;;;;;0.30;0.30;;;16.60;99.90;;;17.67;68.28;100057.06;4953481;29;20692;-67
2022/09/16 07:09:16;;;;;;;0.30;0.30;;;16.60;99.90;;;17.80;66.89;100057.34;4971203;28;21200;-67
2022/09/16 07:11:43;;;;;;;0.30;0.30;;;16.70;99.90;;;17.85;67.10;100065.56;4959728;28;20624;-67
2022/09/16 07:14:11;;;;;;;1.60;1.50;;;16.80;99.90;;;18.02;66.83;100064.50;4955337;28;20648;-67
2022/09/16 07:16:38;;;;;;;0.30;0.30;;;16.90;99.90;;;18.13;65.81;100069.41;4958246;28;20623;-68
2022/09/16 07:19:05;;;;;;;0.30;0.30;;;17.00;99.90;;;18.30;65.43;100070.16;4963635;28;21203;-68
2022/09/16 07:21:32;;;;;;;0.30;0.30;;;17.20;99.90;;;18.61;64.37;100068.38;4964035;28;20637;-67
2022/09/16 07:24:01;;;;;;;0.30;0.30;;;17.40;99.90;;;18.84;63.09;100071.00;4977585;28;21044;-68
2022/09/16 07:26:31;;;;;;;0.30;0.30;;;17.60;99.90;;;18.91;62.81;100072.75;4973927;28;20667;-67
2022/09/16 07:29:02;;;;;;;0.30;0.30;;;17.80;99.90;;;18.93;62.04;100083.19;4952115;28;21259;-67
2022/09/16 07:31:33;;;;;;;0.30;0.30;;;17.80;99.90;;;18.91;62.40;100079.88;4956429;28;20637;-70
2022/09/16 07:34:01;;;;;;;0.30;0.30;;;17.80;99.90;;;18.91;62.33;100085.19;4935263;29;21354;-67
2022/09/16 07:36:35;;;;;;;0.30;0.30;;;17.80;99.90;;;18.99;61.61;100088.59;4954412;28;20664;-67
2022/09/16 07:39:02;;;;;;;0.30;0.30;;;17.90;99.90;;;19.02;61.25;100087.38;4956683;28;20637;-66
2022/09/16 07:41:37;;;;;;;3.70;1.93;;;17.90;99.90;;;18.98;61.95;100089.56;4952073;29;20674;-68
2022/09/16 07:44:06;;;;;;;2.10;2.00;;;17.90;99.90;;;18.95;61.64;100091.75;4953600;28;20635;-68
2022/09/16 07:46:35;;;;;;;0.30;0.30;;;17.90;99.90;;;18.98;61.26;100089.56;4952862;28;20660;-67
2022/09/16 07:49:05;;;;;;;0.30;0.30;;;17.90;99.90;;;19.06;60.81;100096.63;4974915;28;20641;-66
2022/09/16 07:51:33;;;;;;;0.30;0.30;;;17.90;99.90;;;19.04;60.86;100095.94;4967846;28;20999;-68
2022/09/16 07:54:06;;;;;;;0.30;0.30;;;17.90;99.90;;;19.21;60.31;100100.94;4977004;28;21215;-68
2022/09/16 07:56:35;;;;;;;0.30;0.30;;;17.90;99.90;;;19.23;60.21;100096.28;4965073;28;21250;-67
2022/09/16 07:59:05;;;;;;;0.30;0.30;;;18.00;99.90;;;19.15;60.40;100103.47;4950088;28;20652;-68
2022/09/16 08:01:33;;;;;;;0.30;0.30;;;18.00;99.90;;;18.98;60.01;100102.78;4935403;29;21175;-67
2022/09/16 08:04:01;;;;;;;0.30;0.30;;;17.90;99.90;;;18.95;59.50;100091.75;4949995;28;21051;-67
2022/09/16 08:06:30;;;;;;;0.30;0.30;;;17.90;99.90;;;18.88;59.75;100094.28;4934416;29;20672;-68
2022/09/16 08:08:59;;;;;;;0.30;0.30;;;17.90;99.90;;;18.94;59.13;100098.84;4951846;28;21195;-68
2022/09/16 08:11:41;;;;;;;0.30;0.30;;;17.80;99.90;;;18.95;59.06;100097.84;4951801;29;20644;-68
2022/09/16 08:14:07;;;;;;;0.30;0.30;;;17.80;99.90;;;18.90;59.48;100097.56;4952601;29;21165;-68
2022/09/16 08:16:36;;;;;;;0.30;0.30;;;17.80;99.90;;;18.81;58.64;100095.13;4958857;28;20639;-68
2022/09/16 08:19:03;;;;;;;0.30;0.30;;;17.80;99.90;;;18.79;58.02;100102.41;4950992;28;20641;-69
2022/09/16 08:21:30;;;;;;;0.30;0.30;;;17.80;99.90;;;18.90;57.41;100104.66;4950314;28;20638;-68
2022/09/16 08:23:57;;;;;;;0.30;0.30;;;17.80;99.90;;;18.96;56.72;100103.94;4965270;28;20699;-67
2022/09/16 08:26:25;;;;;;;0.30;0.30;;;17.80;99.90;;;19.01;56.67;100099.81;4989099;28;20666;-68
2022/09/16 08:28:52;;;;;;;0.30;0.30;;;17.80;99.90;;;19.10;56.70;100103.19;4968649;28;20634;-66
2022/09/16 08:31:37;;;;;;;0.30;0.30;;;17.80;99.90;;;19.29;56.12;100110.66;4966472;28;20631;-68
2022/09/16 08:34:05;;;;;;;0.30;0.30;;;17.90;99.90;;;19.37;55.93;100105.31;4958296;28;20655;-68
2022/09/16 08:36:32;;;;;;;0.30;0.30;;;18.10;99.90;;;19.50;56.63;100108.16;4959312;28;20627;-67
2022/09/16 08:39:00;;;;;;;0.30;0.30;;;18.20;99.90;;;19.71;55.57;100110.94;4971105;28;20637;-67
2022/09/16 08:41:59;;;;;;;0.30;0.30;;;18.40;99.90;;;19.77;54.69;100110.19;4970379;28;21175;-68
2022/09/16 08:45:08;;;;;;;0.30;0.30;;;18.50;99.90;;;19.95;54.68;100113.28;4952072;28;20675;-67
2022/09/16 08:48:06;;;;;;;0.30;0.30;;;18.70;99.90;;;20.30;53.90;100105.63;4961616;28;20658;-68
2022/09/16 08:50:41;;;;;;;0.30;0.30;;;18.90;99.90;;;20.49;53.02;100110.34;4972845;28;20728;-70
2022/09/16 08:53:40;;;;;;;0.30;0.30;;;19.10;99.90;;;20.64;51.62;100111.13;4950474;28;20687;-69
2022/09/16 08:56:13;;;;;;;0.30;0.30;;;19.30;99.90;;;20.84;49.61;100114.81;4971948;28;20663;-68
2022/09/16 08:58:48;;;;;;;0.30;0.30;;;19.50;99.90;;;21.10;48.91;100114.28;4962249;28;20635;-66
2022/09/16 09:01:37;;;;;;;0.57;0.57;;;19.70;99.90;;;21.12;48.95;100112.25;4956144;28;20640;-66
2022/09/16 09:04:05;;;;;;;0.30;0.30;;;19.80;99.90;;;21.34;48.45;100122.66;4955705;28;22897;-66
2022/09/16 09:07:09;;;;;;;0.30;0.30;;;20.00;99.90;;;21.13;48.63;100112.06;4961877;28;20655;-67
2022/09/16 09:09:55;;;;;;;0.30;0.30;;;20.00;99.90;;;21.12;49.30;100123.72;4976185;28;20622;-65
2022/09/16 09:12:36;;;;;;;0.30;0.30;;;19.90;99.90;;;21.32;48.86;100118.53;4981799;28;20988;-65
2022/09/16 09:15:43;;;;;;;0.40;0.40;;;19.90;99.90;;;21.40;48.55;100119.22;4978548;28;20958;-66
2022/09/16 09:18:27;;;;;;;0.30;0.30;;;20.00;99.90;;;21.30;49.39;100118.75;4976093;28;20643;-67
2022/09/16 09:21:20;;;;;;;0.30;0.30;;;19.90;99.90;;;20.97;50.07;100114.97;4976654;28;20680;-66
2022/09/16 09:23:52;;;;;;;0.30;0.30;;;19.80;99.90;;;20.79;50.28;100117.22;4991028;28;20619;-66
2022/09/16 09:26:47;;;;;;;0.30;0.30;;;19.70;99.90;;;20.62;49.38;100115.78;4990794;28;20698;-65
2022/09/16 09:29:55;;;;;;;0.30;0.30;;;19.60;99.70;;;20.62;49.18;100118.44;4949250;29;20628;-66
2022/09/16 09:32:30;;;;;;;0.30;0.30;;;19.50;99.30;;;20.86;48.54;100112.81;4955814;28;20645;-66
2022/09/16 09:35:35;;;;;;;0.30;0.30;;;19.60;99.10;;;22.30;44.77;100112.06;4961220;28;21688;-66
2022/09/16 09:38:32;;;;;;;0.30;0.30;;;20.20;98.20;;;25.46;38.15;100113.97;4961867;28;20636;-66
2022/09/16 09:41:35;;;;;;;0.30;0.30;;;21.80;95.50;;;26.49;36.02;100117.59;4957951;28;20643;-66
2022/09/16 09:44:44;;;;;;;0.30;0.30;;;23.00;93.00;;;26.07;36.35;100104.09;4956522;28;20624;-64
2022/09/16 09:47:27;;;;;;;0.30;0.30;;;23.20;91.10;;;29.22;31.38;100102.06;4944529;28;20676;-65
2022/09/16 09:49:57;;;;;;;0.30;0.30;;;24.60;86.40;;;31.17;27.80;100115.59;4985148;28;21007;-65
2022/09/16 09:52:39;;;;;;;0.30;0.30;;;26.00;79.50;;;34.87;23.39;100106.56;4957878;28;20643;-66
2022/09/16 09:55:19;;;;;;;0.30;0.30;;;28.10;71.80;;;35.49;21.96;100100.41;4971657;28;20663;-66
2022/09/16 09:58:33;;;;;;;0.30;0.30;;;29.80;63.30;;;31.80;26.17;100112.84;4979394;28;20628;-66
2022/09/16 10:01:00;;;;;;;0.30;0.30;;;28.50;62.60;;;29.88;28.77;100102.00;4934522;29;20688;-66
2022/09/16 10:03:29;;;;;;;0.30;0.30;;;27.40;63.50;;;28.28;30.98;100098.16;4968727;28;20627;-65
2022/09/16 10:05:56;;;;;;;0.30;0.30;;;26.20;65.00;;;27.39;33.11;100103.94;4955916;28;20727;-66
2022/09/16 10:08:29;;;;;;;0.30;0.30;;;25.40;67.20;;;27.38;32.54;100104.19;4956505;28;20683;-66
2022/09/16 10:11:00;;;;;;;0.30;0.30;;;25.00;67.70;;;27.96;30.84;100099.59;4960139;28;20627;-66
2022/09/16 10:13:29;;;;;;;0.30;0.30;;;25.20;66.70;;;30.10;28.67;100101.22;4956026;28;20620;-67
2022/09/16 10:16:14;;;;;;;0.30;0.30;;;26.10;65.80;;;31.80;26.46;100104.75;4961552;28;20659;-66
2022/09/16 10:18:42;;;;;;;0.30;0.30;;;27.20;63.90;;;31.52;26.35;100099.72;4965455;28;20617;-66
2022/09/16 10:21:14;;;;;;;0.30;0.30;;;27.70;61.70;;;30.39;27.33;100097.31;4955929;28;20631;-67
2022/09/16 10:23:52;;;;;;;0.30;0.30;;;27.50;60.60;;;29.07;28.78;100083.78;4964341;28;20635;-67
2022/09/16 10:26:23;;;;;;;0.40;0.40;;;26.90;61.20;;;28.03;30.44;100084.22;4959814;28;20671;-67
2022/09/16 10:29:13;;;;;;;0.30;0.30;;;26.20;62.20;;;27.93;30.50;100085.84;4974567;28;20619;-67
2022/09/16 10:31:41;;;;;;;0.30;0.30;;;25.90;63.00;;;27.71;31.32;100084.84;4967498;28;20631;-65
2022/09/16 10:34:30;;;;;;;0.30;0.30;;;25.70;63.40;;;27.74;31.37;100087.03;4968384;28;20654;-65
2022/09/16 10:37:18;;;;;;;1.07;1.07;;;25.50;63.50;;;27.06;32.21;100084.88;4970465;28;20671;-68
2022/09/16 10:39:52;;;;;;;0.30;0.30;;;25.20;64.20;;;26.55;32.89;100081.91;4953491;29;20632;-66
2022/09/16 10:42:23;;;;;;;0.30;0.30;;;24.80;64.20;;;26.13;33.00;100076.47;4958365;28;20635;-65
2022/09/16 10:44:54;;;;;;;0.30;0.30;;;24.50;63.90;;;26.48;32.55;100068.63;4961864;28;20652;-66
2022/09/16 10:47:32;;;;;;;0.30;0.30;;;24.50;64.70;;;26.15;33.76;100062.91;4969091;28;20663;-66